Time,TemperatureF,DewpointF,PressureIn,WindDirection,WindDirectionDegrees,WindSpeedMPH,WindSpeedGustMPH,Humidity,HourlyPrecipIn,Conditions,Clouds,dailyrainin,SoftwareType,DateUTC
2013-03-17 00:03:00,65.0,-99.9,30.01,SSW,192,11.0,12.0,-999,-99.99,,,-99.99,,2013-03-17 05:03:00,
2013-03-17 00:12:00,65.0,-99.9,30.01,SSW,197,12.0,12.0,-999,-99.99,,,-99.99,,2013-03-17 05:12:00,
2013-03-17 00:22:00,65.0,-99.9,30.01,SSW,194,11.0,11.0,-999,-99.99,,,-99.99,,2013-03-17 05:22:00,
2013-03-17 00:32:00,65.0,-99.9,30.00,SSW,195,11.0,11.0,-999,-99.99,,,-99.99,,2013-03-17 05:32:00,
2013-03-17 00:43:00,65.0,-99.9,30.00,SSW,197,11.0,11.0,-999,-99.99,,,-99.99,,2013-03-17 05:43:00,
2013-03-17 00:52:00,65.0,-99.9,30.00,SSW,194,11.0,11.0,-999,-99.99,,,-99.99,,2013-03-17 05:52:00,
2013-03-17 01:02:00,65.0,-99.9,30.00,SSW,193,11.0,11.0,-999,-99.99,,,-99.99,,2013-03-17 06:02:00,
2013-03-17 01:12:00,65.0,-99.9,30.00,South,186,11.0,12.0,-999,-99.99,,,-99.99,,2013-03-17 06:12:00,
2013-03-17 01:22:00,64.0,-99.9,30.00,South,185,13.0,13.0,-999,-99.99,,,-99.99,,2013-03-17 06:22:00,
2013-03-17 01:32:00,64.0,-99.9,29.99,South,187,12.0,12.0,-999,-99.99,,,-99.99,,2013-03-17 06:32:00,
2013-03-17 01:42:00,65.0,-99.9,29.99,South,186,11.0,12.0,-999,-99.99,,,-99.99,,2013-03-17 06:42:00,
2013-03-17 01:53:00,65.0,-99.9,29.98,South,191,12.0,13.0,-999,-99.99,,,-99.99,,2013-03-17 06:53:00,
2013-03-17 02:02:00,65.0,-99.9,29.98,South,190,12.0,12.0,-999,-99.99,,,-99.99,,2013-03-17 07:02:00,
2013-03-17 02:12:00,65.0,-99.9,29.98,SSW,197,12.0,12.0,-999,-99.99,,,-99.99,,2013-03-17 07:12:00,
2013-03-17 02:22:00,65.0,-99.9,29.98,SSW,198,12.0,13.0,-999,-99.99,,,-99.99,,2013-03-17 07:22:00,
2013-03-17 02:32:00,64.0,-99.9,29.98,SSW,199,13.0,13.0,-999,-99.99,,,-99.99,,2013-03-17 07:32:00,
2013-03-17 02:42:00,64.0,-99.9,29.98,SSW,202,14.0,14.0,-999,-99.99,,,-99.99,,2013-03-17 07:42:00,
2013-03-17 02:52:00,64.0,-99.9,29.98,SSW,203,14.0,14.0,-999,-99.99,,,-99.99,,2013-03-17 07:52:00,
2013-03-17 03:03:00,65.0,-99.9,29.97,SSW,208,14.0,14.0,-999,-99.99,,,-99.99,,2013-03-17 08:03:00,
2013-03-17 03:13:00,65.0,-99.9,29.97,SSW,208,13.0,13.0,-999,-99.99,,,-99.99,,2013-03-17 08:13:00,
2013-03-17 03:22:00,65.0,-99.9,29.96,SW,218,13.0,13.0,-999,-99.99,,,-99.99,,2013-03-17 08:22:00,
2013-03-17 03:33:00,65.0,-99.9,29.96,SW,224,12.0,12.0,-999,-99.99,,,-99.99,,2013-03-17 08:33:00,
2013-03-17 03:42:00,65.0,-99.9,29.96,SW,221,11.0,11.0,-999,-99.99,,,-99.99,,2013-03-17 08:42:00,
2013-03-17 03:52:00,65.0,-99.9,29.96,SW,222,11.0,11.0,-999,-99.99,,,-99.99,,2013-03-17 08:52:00,
2013-03-17 04:03:00,65.0,-99.9,29.96,SW,222,11.0,11.0,-999,-99.99,,,-99.99,,2013-03-17 09:03:00,
2013-03-17 04:13:00,65.0,-99.9,29.96,SW,219,10.0,10.0,-999,-99.99,,,-99.99,,2013-03-17 09:13:00,
2013-03-17 04:22:00,65.0,-99.9,29.96,SW,219,9.0,9.0,-999,-99.99,,,-99.99,,2013-03-17 09:22:00,
2013-03-17 04:33:00,65.0,-99.9,29.96,SW,221,9.0,9.0,-999,-99.99,,,-99.99,,2013-03-17 09:33:00,
2013-03-17 04:43:00,65.0,-99.9,29.96,SW,233,9.0,9.0,-999,-99.99,,,-99.99,,2013-03-17 09:43:00,
2013-03-17 04:53:00,65.0,-99.9,29.96,SW,236,8.0,8.0,-999,-99.99,,,-99.99,,2013-03-17 09:53:00,
2013-03-17 05:03:00,65.0,-99.9,29.96,SW,235,7.0,8.0,-999,-99.99,,,-99.99,,2013-03-17 10:03:00,
2013-03-17 05:13:00,65.0,-99.9,29.96,SW,235,7.0,7.0,-999,-99.99,,,-99.99,,2013-03-17 10:13:00,
2013-03-17 05:23:00,65.0,-99.9,29.96,WSW,238,7.0,7.0,-999,-99.99,,,-99.99,,2013-03-17 10:23:00,
2013-03-17 05:33:00,65.0,-99.9,29.96,WSW,238,7.0,7.0,-999,-99.99,,,-99.99,,2013-03-17 10:33:00,
2013-03-17 05:42:00,65.0,-99.9,29.96,WSW,241,6.0,6.0,-999,-99.99,,,-99.99,,2013-03-17 10:42:00,
2013-03-17 05:53:00,65.0,-99.9,29.97,SW,225,6.0,6.0,-999,-99.99,,,-99.99,,2013-03-17 10:53:00,
2013-03-17 06:03:00,64.0,-99.9,29.97,SW,220,6.0,6.0,-999,-99.99,,,-99.99,,2013-03-17 11:03:00,
2013-03-17 06:12:00,64.0,-99.9,29.97,SW,216,5.0,5.0,-999,-99.99,,,-99.99,,2013-03-17 11:12:00,
2013-03-17 06:22:00,64.0,-99.9,29.97,South,182,4.0,4.0,-999,-99.99,,,-99.99,,2013-03-17 11:22:00,
2013-03-17 06:32:00,63.0,-99.9,29.97,SSE,164,4.0,4.0,-999,-99.99,,,-99.99,,2013-03-17 11:32:00,
2013-03-17 06:43:00,63.0,-99.9,29.98,SSE,164,4.0,4.0,-999,-99.99,,,-99.99,,2013-03-17 11:43:00,
2013-03-17 06:52:00,64.0,-99.9,29.97,SSE,165,3.0,3.0,-999,-99.99,,,-99.99,,2013-03-17 11:52:00,
2013-03-17 07:02:00,64.0,-99.9,29.97,SE,141,3.0,4.0,-999,-99.99,,,-99.99,,2013-03-17 12:02:00,
2013-03-17 07:12:00,64.0,-99.9,29.97,SE,140,1.0,1.0,-999,-99.99,,,-99.99,,2013-03-17 12:12:00,
2013-03-17 07:22:00,65.0,-99.9,29.98,SE,141,3.0,3.0,-999,-99.99,,,-99.99,,2013-03-17 12:22:00,
2013-03-17 07:33:00,64.0,-99.9,29.98,SE,138,6.0,7.0,-999,-99.99,,,-99.99,,2013-03-17 12:33:00,
2013-03-17 07:43:00,64.0,-99.9,29.98,SE,138,6.0,6.0,-999,-99.99,,,-99.99,,2013-03-17 12:43:00,
2013-03-17 07:52:00,64.0,-99.9,29.98,SSE,147,6.0,6.0,-999,-99.99,,,-99.99,,2013-03-17 12:52:00,
2013-03-17 08:02:00,64.0,-99.9,29.98,SE,143,6.0,6.0,-999,-99.99,,,-99.99,,2013-03-17 13:02:00,
2013-03-17 08:13:00,64.0,-99.9,29.98,SE,139,8.0,8.0,-999,-99.99,,,-99.99,,2013-03-17 13:13:00,
2013-03-17 08:22:00,63.0,-99.9,29.99,SE,131,13.0,15.0,-999,-99.99,,,-99.99,,2013-03-17 13:22:00,
2013-03-17 08:33:00,63.0,-99.9,29.99,SE,134,12.0,13.0,-999,-99.99,,,-99.99,,2013-03-17 13:33:00,
2013-03-17 08:43:00,62.0,-99.9,29.99,SE,142,15.0,15.0,-999,-99.99,,,-99.99,,2013-03-17 13:43:00,
2013-03-17 08:53:00,63.0,-99.9,29.99,SE,138,15.0,16.0,-999,-99.99,,,-99.99,,2013-03-17 13:53:00,
2013-03-17 09:02:00,63.0,-99.9,29.99,SE,141,14.0,15.0,-999,-99.99,,,-99.99,,2013-03-17 14:02:00,
2013-03-17 09:12:00,63.0,-99.9,30.00,SE,146,15.0,15.0,-999,-99.99,,,-99.99,,2013-03-17 14:12:00,
2013-03-17 09:22:00,63.0,-99.9,30.00,SE,143,14.0,15.0,-999,-99.99,,,-99.99,,2013-03-17 14:22:00,
2013-03-17 09:33:00,63.0,-99.9,30.00,SE,140,14.0,15.0,-999,-99.99,,,-99.99,,2013-03-17 14:33:00,
2013-03-17 09:43:00,63.0,-99.9,30.00,SE,138,13.0,14.0,-999,-99.99,,,-99.99,,2013-03-17 14:43:00,
2013-03-17 09:53:00,64.0,-99.9,30.00,SE,133,12.0,13.0,-999,-99.99,,,-99.99,,2013-03-17 14:53:00,
2013-03-17 10:02:00,64.0,-99.9,30.00,SE,136,12.0,13.0,-999,-99.99,,,-99.99,,2013-03-17 15:02:00,
2013-03-17 10:12:00,64.0,-99.9,29.99,SE,130,12.0,13.0,-999,-99.99,,,-99.99,,2013-03-17 15:12:00,
2013-03-17 10:23:00,64.0,-99.9,30.00,SE,137,12.0,14.0,-999,-99.99,,,-99.99,,2013-03-17 15:23:00,
2013-03-17 10:33:00,64.0,-99.9,30.00,SE,127,11.0,12.0,-999,-99.99,,,-99.99,,2013-03-17 15:33:00,
2013-03-17 10:43:00,65.0,-99.9,30.00,SE,133,13.0,14.0,-999,-99.99,,,-99.99,,2013-03-17 15:43:00,
2013-03-17 10:53:00,64.0,-99.9,30.00,SE,130,11.0,12.0,-999,-99.99,,,-99.99,,2013-03-17 15:53:00,
2013-03-17 11:03:00,65.0,-99.9,29.99,SE,132,8.0,10.0,-999,-99.99,,,-99.99,,2013-03-17 16:03:00,
2013-03-17 11:13:00,65.0,-99.9,29.99,ESE,116,10.0,10.0,-999,-99.99,,,-99.99,,2013-03-17 16:13:00,
2013-03-17 11:23:00,65.0,-99.9,29.99,ESE,122,12.0,12.0,-999,-99.99,,,-99.99,,2013-03-17 16:23:00,
2013-03-17 11:34:00,64.0,-99.9,30.00,SE,130,14.0,14.0,-999,-99.99,,,-99.99,,2013-03-17 16:34:00,
2013-03-17 11:43:00,64.0,-99.9,30.00,SE,130,13.0,14.0,-999,-99.99,,,-99.99,,2013-03-17 16:43:00,
2013-03-17 11:53:00,64.0,-99.9,30.00,SE,140,15.0,15.0,-999,-99.99,,,-99.99,,2013-03-17 16:53:00,
2013-03-17 12:03:00,64.0,-99.9,30.00,SE,138,14.0,15.0,-999,-99.99,,,-99.99,,2013-03-17 17:03:00,
2013-03-17 12:12:00,64.0,-99.9,29.99,SE,135,16.0,17.0,-999,-99.99,,,-99.99,,2013-03-17 17:12:00,
2013-03-17 12:22:00,64.0,-99.9,29.98,SE,134,18.0,19.0,-999,-99.99,,,-99.99,,2013-03-17 17:22:00,
2013-03-17 12:33:00,64.0,-99.9,29.98,SE,128,17.0,18.0,-999,-99.99,,,-99.99,,2013-03-17 17:33:00,
2013-03-17 12:42:00,65.0,-99.9,29.98,SE,130,15.0,17.0,-999,-99.99,,,-99.99,,2013-03-17 17:42:00,
2013-03-17 12:53:00,65.0,-99.9,29.98,SE,132,10.0,12.0,-999,-99.99,,,-99.99,,2013-03-17 17:53:00,
2013-03-17 13:02:00,65.0,-99.9,29.98,SE,131,9.0,11.0,-999,-99.99,,,-99.99,,2013-03-17 18:02:00,
2013-03-17 13:13:00,65.0,-99.9,29.98,SE,143,9.0,12.0,-999,-99.99,,,-99.99,,2013-03-17 18:13:00,
2013-03-17 13:22:00,65.0,-99.9,29.98,SE,144,11.0,12.0,-999,-99.99,,,-99.99,,2013-03-17 18:22:00,
2013-03-17 13:32:00,65.0,-99.9,29.98,SE,145,12.0,13.0,-999,-99.99,,,-99.99,,2013-03-17 18:32:00,
2013-03-17 13:42:00,65.0,-99.9,29.98,SE,145,13.0,14.0,-999,-99.99,,,-99.99,,2013-03-17 18:42:00,
2013-03-17 13:52:00,66.0,-99.9,29.97,SE,141,11.0,11.0,-999,-99.99,,,-99.99,,2013-03-17 18:52:00,
2013-03-17 14:02:00,66.0,-99.9,29.96,SE,139,10.0,11.0,-999,-99.99,,,-99.99,,2013-03-17 19:02:00,
2013-03-17 14:12:00,66.0,-99.9,29.96,SE,139,10.0,11.0,-999,-99.99,,,-99.99,,2013-03-17 19:12:00,
2013-03-17 14:23:00,66.0,-99.9,29.96,SE,141,11.0,12.0,-999,-99.99,,,-99.99,,2013-03-17 19:23:00,
2013-03-17 14:33:00,66.0,-99.9,29.95,SSE,147,10.0,13.0,-999,-99.99,,,-99.99,,2013-03-17 19:33:00,
2013-03-17 14:42:00,66.0,-99.9,29.95,SE,146,11.0,11.0,-999,-99.99,,,-99.99,,2013-03-17 19:42:00,
2013-03-17 14:53:00,67.0,-99.9,29.94,SSE,147,10.0,12.0,-999,-99.99,,,-99.99,,2013-03-17 19:53:00,
2013-03-17 15:02:00,67.0,-99.9,29.94,SSE,148,10.0,11.0,-999,-99.99,,,-99.99,,2013-03-17 20:02:00,
2013-03-17 15:12:00,67.0,-99.9,29.93,SSE,156,9.0,11.0,-999,-99.99,,,-99.99,,2013-03-17 20:12:00,
2013-03-17 15:23:00,66.0,-99.9,29.93,SSE,160,8.0,9.0,-999,-99.99,,,-99.99,,2013-03-17 20:23:00,
2013-03-17 15:33:00,66.0,-99.9,29.93,SSE,162,11.0,12.0,-999,-99.99,,,-99.99,,2013-03-17 20:33:00,
2013-03-17 15:43:00,66.0,-99.9,29.93,South,188,6.0,9.0,-999,-99.99,,,-99.99,,2013-03-17 20:43:00,
2013-03-17 15:52:00,66.0,-99.9,29.93,South,172,7.0,9.0,-999,-99.99,,,-99.99,,2013-03-17 20:52:00,
2013-03-17 16:03:00,66.0,-99.9,29.93,South,184,8.0,10.0,-999,-99.99,,,-99.99,,2013-03-17 21:03:00,
2013-03-17 16:12:00,67.0,-99.9,29.93,South,179,7.0,9.0,-999,-99.99,,,-99.99,,2013-03-17 21:12:00,
2013-03-17 16:23:00,68.0,-99.9,29.92,South,183,10.0,11.0,-999,-99.99,,,-99.99,,2013-03-17 21:23:00,
2013-03-17 16:33:00,69.0,-99.9,29.92,South,186,9.0,11.0,-999,-99.99,,,-99.99,,2013-03-17 21:33:00,
2013-03-17 16:43:00,68.0,-99.9,29.92,South,183,10.0,11.0,-999,-99.99,,,-99.99,,2013-03-17 21:43:00,
2013-03-17 16:53:00,69.0,-99.9,29.92,South,183,8.0,10.0,-999,-99.99,,,-99.99,,2013-03-17 21:53:00,
2013-03-17 17:03:00,68.0,-99.9,29.92,South,178,8.0,9.0,-999,-99.99,,,-99.99,,2013-03-17 22:03:00,
2013-03-17 17:13:00,67.0,-99.9,29.91,South,169,8.0,9.0,-999,-99.99,,,-99.99,,2013-03-17 22:13:00,
2013-03-17 17:23:00,67.0,-99.9,29.91,SSE,154,9.0,10.0,-999,-99.99,,,-99.99,,2013-03-17 22:23:00,
2013-03-17 17:33:00,67.0,-99.9,29.91,SSE,156,11.0,11.0,-999,-99.99,,,-99.99,,2013-03-17 22:33:00,
2013-03-17 17:42:00,67.0,-99.9,29.91,SSE,156,13.0,13.0,-999,-99.99,,,-99.99,,2013-03-17 22:42:00,
2013-03-17 17:53:00,67.0,-99.9,29.91,SSE,150,13.0,14.0,-999,-99.99,,,-99.99,,2013-03-17 22:53:00,
2013-03-17 18:03:00,67.0,-99.9,29.91,SE,143,15.0,16.0,-999,-99.99,,,-99.99,,2013-03-17 23:03:00,
2013-03-17 18:13:00,67.0,-99.9,29.91,SE,140,15.0,16.0,-999,-99.99,,,-99.99,,2013-03-17 23:13:00,
2013-03-17 18:23:00,67.0,-99.9,29.91,SE,142,15.0,15.0,-999,-99.99,,,-99.99,,2013-03-17 23:23:00,
2013-03-17 18:33:00,66.0,-99.9,29.91,SE,145,15.0,16.0,-999,-99.99,,,-99.99,,2013-03-17 23:33:00,
2013-03-17 18:43:00,66.0,-99.9,29.91,SSE,150,16.0,17.0,-999,-99.99,,,-99.99,,2013-03-17 23:43:00,
2013-03-17 18:53:00,66.0,-99.9,29.91,SSE,151,14.0,15.0,-999,-99.99,,,-99.99,,2013-03-17 23:53:00,
2013-03-17 19:03:00,66.0,-99.9,29.91,SSE,153,14.0,15.0,-999,-99.99,,,-99.99,,2013-03-18 00:03:00,
2013-03-17 19:13:00,66.0,-99.9,29.91,SSE,151,14.0,14.0,-999,-99.99,,,-99.99,,2013-03-18 00:13:00,
2013-03-17 19:22:00,66.0,-99.9,29.91,SE,145,13.0,14.0,-999,-99.99,,,-99.99,,2013-03-18 00:22:00,
2013-03-17 19:33:00,66.0,-99.9,29.91,SE,143,13.0,14.0,-999,-99.99,,,-99.99,,2013-03-18 00:33:00,
2013-03-17 19:42:00,66.0,-99.9,29.91,SE,141,13.0,13.0,-999,-99.99,,,-99.99,,2013-03-18 00:42:00,
2013-03-17 19:53:00,66.0,-99.9,29.92,SSE,156,15.0,16.0,-999,-99.99,,,-99.99,,2013-03-18 00:53:00,
2013-03-17 20:02:00,66.0,-99.9,29.92,SSE,158,15.0,16.0,-999,-99.99,,,-99.99,,2013-03-18 01:02:00,
2013-03-17 20:12:00,66.0,-99.9,29.92,SSE,157,16.0,17.0,-999,-99.99,,,-99.99,,2013-03-18 01:12:00,
2013-03-17 20:22:00,66.0,-99.9,29.91,SSE,155,16.0,17.0,-999,-99.99,,,-99.99,,2013-03-18 01:22:00,
2013-03-17 20:33:00,66.0,-99.9,29.91,SSE,154,16.0,17.0,-999,-99.99,,,-99.99,,2013-03-18 01:33:00,
2013-03-17 20:42:00,66.0,-99.9,29.91,SSE,153,16.0,17.0,-999,-99.99,,,-99.99,,2013-03-18 01:42:00,
2013-03-17 20:52:00,66.0,-99.9,29.91,SSE,154,16.0,17.0,-999,-99.99,,,-99.99,,2013-03-18 01:52:00,
2013-03-17 21:02:00,66.0,-99.9,29.91,SSE,151,16.0,17.0,-999,-99.99,,,-99.99,,2013-03-18 02:02:00,
2013-03-17 21:12:00,66.0,-99.9,29.91,SSE,155,18.0,20.0,-999,-99.99,,,-99.99,,2013-03-18 02:12:00,
2013-03-17 21:22:00,66.0,-99.9,29.91,South,172,20.0,21.0,-999,-99.99,,,-99.99,,2013-03-18 02:22:00,
2013-03-17 21:32:00,66.0,-99.9,29.91,South,176,19.0,21.0,-999,-99.99,,,-99.99,,2013-03-18 02:32:00,
2013-03-17 21:42:00,65.0,-99.9,29.92,South,187,19.0,21.0,-999,-99.99,,,-99.99,,2013-03-18 02:42:00,
2013-03-17 21:52:00,65.0,-99.9,29.92,South,184,18.0,20.0,-999,-99.99,,,-99.99,,2013-03-18 02:52:00,
2013-03-17 22:03:00,65.0,-99.9,29.91,South,183,19.0,21.0,-999,-99.99,,,-99.99,,2013-03-18 03:03:00,
2013-03-17 22:12:00,65.0,-99.9,29.91,South,183,19.0,21.0,-999,-99.99,,,-99.99,,2013-03-18 03:12:00,
2013-03-17 22:22:00,65.0,-99.9,29.91,South,183,20.0,22.0,-999,-99.99,,,-99.99,,2013-03-18 03:22:00,
2013-03-17 22:33:00,65.0,-99.9,29.92,South,183,20.0,22.0,-999,-99.99,,,-99.99,,2013-03-18 03:33:00,
2013-03-17 22:42:00,65.0,-99.9,29.92,South,180,19.0,21.0,-999,-99.99,,,-99.99,,2013-03-18 03:42:00,
2013-03-17 22:53:00,65.0,-99.9,29.92,South,182,19.0,22.0,-999,-99.99,,,-99.99,,2013-03-18 03:53:00,
2013-03-17 23:03:00,65.0,-99.9,29.92,South,180,18.0,20.0,-999,-99.99,,,-99.99,,2013-03-18 04:03:00,
2013-03-17 23:13:00,65.0,-99.9,29.91,South,178,18.0,20.0,-999,-99.99,,,-99.99,,2013-03-18 04:13:00,
2013-03-17 23:23:00,65.0,-99.9,29.91,South,177,18.0,21.0,-999,-99.99,,,-99.99,,2013-03-18 04:23:00,
2013-03-17 23:33:00,65.0,-99.9,29.91,South,174,17.0,19.0,-999,-99.99,,,-99.99,,2013-03-18 04:33:00,
2013-03-17 23:42:00,65.0,-99.9,29.91,South,174,17.0,19.0,-999,-99.99,,,-99.99,,2013-03-18 04:42:00,
2013-03-17 23:53:00,65.0,-99.9,29.90,South,172,18.0,19.0,-999,-99.99,,,-99.99,,2013-03-18 04:53:00,